Latest Weather Observations for Swanbourne

IDW60901

Issued at 7:31 pm WST Thursday 23 February 2017 (issued every 10 minutes, with the page automatically refreshed every 10 minutes)

About weather observations | Map of Perth area stations | Latest observations for Perth area | Other Formats
Station Details ID: 009215 Name: SWANBOURNE Lat: -31.96 Lon: 115.76 Height: 40.96 m
Data from the previous 72 hours. | See also: Recent months at Swanbourne
Date/Time
WST
Temp
°C
App
Temp
°C
Dew
Point
°C
Rel
Hum
%
Delta-T
°C
Wind Press
QNH
hPa
Press
MSL
hPa
Rain since
9am
mm
Dir  Spd
km/h
Gust
km/h
Spd
kts
Gust
kts
23/07:00pm 21.7 21.2 15.8 69 3.5 S 13 26 7 14 - - 0.0
23/06:30pm 22.4 21.2 16.0 67 3.9 S 17 24 9 13 - - 0.0
23/06:00pm 22.8 20.2 15.9 65 4.2 SSW 24 37 13 20 - - 0.0
23/05:30pm 23.6 22.2 16.6 65 4.3 SSW 19 28 10 15 - - 0.0
23/05:00pm 23.7 22.0 16.2 63 4.6 SSW 20 30 11 16 - - 0.0
23/04:30pm 24.2 23.0 17.0 64 4.5 SSW 19 30 10 16 - - 0.0
23/04:00pm 23.6 22.0 18.3 72 3.3 SSW 24 32 13 17 - - 0.0
23/03:30pm 23.8 22.1 18.0 70 3.6 SSW 24 32 13 17 - - 0.0
23/03:00pm 24.1 22.6 17.8 68 3.9 SSW 22 33 12 18 - - 0.0
23/02:30pm 23.8 22.1 17.3 67 4.0 SSW 22 30 12 16 - - 0.0
23/02:00pm 24.1 22.1 16.4 62 4.7 SSW 22 30 12 16 - - 0.0
23/01:30pm 25.1 23.5 16.5 59 5.3 SSW 20 30 11 16 - - 0.0
23/01:00pm 24.7 22.9 16.9 62 4.8 SSW 22 32 12 17 - - 0.0
23/12:30pm 25.7 24.4 16.8 58 5.5 SSW 19 26 10 14 - - 0.0
23/12:00pm 27.9 26.2 9.7 32 10.1 E 9 20 5 11 - - 0.0
23/11:30am 27.6 26.4 10.3 34 9.7 ESE 7 20 4 11 - - 0.0
23/11:00am 26.6 25.5 10.7 37 9.0 E 7 13 4 7 - - 0.0
23/10:30am 25.6 24.0 11.7 42 7.9 ENE 11 15 6 8 - - 0.0
23/10:00am 24.7 22.7 11.6 44 7.4 ENE 13 20 7 11 - - 0.0
23/09:30am 23.5 20.9 11.9 48 6.6 E 17 26 9 14 - - 0.0
23/09:00am 22.2 19.3 12.2 53 5.7 E 19 28 10 15 - - 0.0
23/08:30am 20.5 19.6 13.7 65 3.9 E 11 17 6 9 - - 0.0
23/08:00am 18.9 18.0 13.7 72 3.0 ESE 11 17 6 9 - - 0.0
23/07:30am 17.4 17.3 14.9 85 1.5 ESE 9 15 5 8 - - 0.0
23/07:00am 15.9 15.9 15.3 96 0.3 ESE 9 13 5 7 - - 0.0
23/06:30am 14.7 14.0 14.4 98 0.2 ESE 11 15 6 8 - - 0.0
23/06:00am 14.2 13.7 13.9 98 0.2 SE 9 13 5 7 - - 0.0
23/05:30am 14.3 14.2 14.0 98 0.2 SE 7 11 4 6 - - 0.0
23/05:00am 14.4 13.9 13.9 97 0.3 SE 9 13 5 7 - - 0.0
23/04:30am 14.6 14.2 14.0 96 0.3 ESE 9 13 5 7 - - 0.0
23/04:00am 15.0 14.6 14.2 95 0.5 ESE 9 11 5 6 - - 0.0
23/03:30am 15.2 15.4 14.2 94 0.6 SE 6 9 3 5 - - 0.0
23/03:00am 15.4 15.0 14.1 92 0.7 SE 9 11 5 6 - - 0.0
23/02:30am 15.7 15.3 14.2 91 0.9 SE 9 13 5 7 - - 0.0
23/02:00am 15.8 15.5 14.3 91 0.9 SE 9 13 5 7 - - 0.0
23/01:30am 16.1 16.3 14.6 91 0.9 SE 7 13 4 7 - - 0.0
23/01:00am 16.2 16.0 14.7 91 0.9 SE 9 15 5 8 - - 0.0
23/12:30am 16.2 16.4 14.6 90 0.9 SE 7 13 4 7 - - 0.0
23/12:00am 16.5 16.2 14.3 87 1.3 SE 9 13 5 7 - - 0.0
 
Date/Time
WST
Temp
°C
App
Temp
°C
Dew
Point
°C
Rel
Hum
%
Delta-T
°C
Wind Press
QNH
hPa
Press
MSL
hPa
Rain since
9am
mm
Dir  Spd
km/h
Gust
km/h
Spd
kts
Gust
kts
22/11:30pm 17.1 16.4 14.4 84 1.5 SSE 11 17 6 9 - - 0.0
22/11:00pm 17.4 16.7 14.3 82 1.8 SSE 11 19 6 10 - - 0.0
22/10:30pm 17.5 16.8 14.2 81 1.9 SSE 11 17 6 9 - - 0.0
22/10:00pm 18.1 17.0 14.4 79 2.1 SSE 13 19 7 10 - - 0.0
22/09:30pm 18.1 17.4 14.4 79 2.1 SSE 11 20 6 11 - - 0.0
22/09:00pm 18.4 17.1 14.7 79 2.1 S 15 24 8 13 - - 0.0
22/08:30pm 18.5 16.8 14.6 78 2.3 S 17 28 9 15 - - 0.0
22/08:00pm 18.7 16.4 14.2 75 2.6 S 19 30 10 16 - - 0.0
22/07:30pm 18.7 16.1 13.8 73 2.8 S 20 28 11 15 - - 0.0
22/07:00pm 18.8 15.8 13.6 72 3.0 SSW 22 30 12 16 - - 0.0
22/06:30pm 19.2 16.6 13.2 68 3.4 SSW 19 28 10 15 - - 0.0
22/06:00pm 19.8 16.9 13.0 65 3.9 SSW 20 33 11 18 - - 0.0
22/05:30pm 20.4 16.9 12.1 59 4.6 SSW 22 30 12 16 - - 0.0
22/05:00pm 20.7 17.4 12.9 61 4.4 SSW 22 33 12 18 - - 0.0
22/04:30pm 20.9 17.0 12.1 57 4.9 SSW 24 33 13 18 - - 0.0
22/04:00pm 21.3 17.6 11.6 54 5.4 SSW 22 33 12 18 - - 0.0
22/03:30pm 20.9 16.8 11.5 55 5.2 SSW 24 33 13 18 - - 0.0
22/03:00pm 21.2 17.0 11.2 53 5.5 SSW 24 33 13 18 - - 0.0
22/02:30pm 21.3 17.5 11.3 53 5.5 SW 22 33 12 18 - - 0.0
22/02:00pm 21.7 18.3 11.1 51 5.9 SW 20 30 11 16 - - 0.0
22/01:30pm 21.4 18.4 12.0 55 5.3 SW 19 30 10 16 - - 0.0
22/01:00pm 21.6 18.5 11.6 53 5.6 SW 19 28 10 15 - - 0.0
22/12:30pm 21.3 18.3 10.8 51 5.8 SW 17 26 9 14 - - 0.0
22/12:00pm 21.5 18.6 10.9 51 5.8 SW 17 26 9 14 - - 0.0
22/11:30am 21.2 18.1 10.4 50 5.9 SW 17 22 9 12 - - 0.0
22/11:00am 21.4 20.2 10.3 49 6.0 SSE 7 15 4 8 - - 0.0
22/10:30am 19.8 17.9 9.1 50 5.6 SSE 9 20 5 11 - - 0.0
22/10:00am 19.4 17.6 9.6 53 5.2 SSE 9 19 5 10 - - 0.0
22/09:30am 18.5 16.7 9.3 55 4.8 ESE 9 17 5 9 - - 0.0
22/09:00am 18.2 16.4 9.5 57 4.6 E 9 17 5 9 - - 0.0
22/08:30am 17.3 15.6 9.7 61 4.0 E 9 13 5 7 - - 0.0
22/08:00am 16.1 14.7 9.5 65 3.4 E 7 11 4 6 - - 0.0
22/07:30am 15.1 12.9 9.5 69 2.9 E 11 15 6 8 - - 0.0
22/07:00am 14.1 12.3 9.3 73 2.5 ENE 9 11 5 6 - - 0.0
22/06:30am 13.4 11.8 8.7 73 2.4 ENE 7 9 4 5 - - 0.0
22/06:00am 13.0 11.0 8.5 74 2.2 E 9 11 5 6 - - 0.0
22/05:30am 12.3 10.1 7.8 74 2.2 E 9 11 5 6 - - 0.0
22/05:00am 12.3 10.0 7.6 73 2.3 E 9 11 5 6 - - 0.0
22/04:30am 12.4 10.1 7.3 71 2.5 ENE 9 11 5 6 - - 0.0
22/04:00am 13.5 11.3 7.7 68 2.9 ESE 9 11 5 6 - - 0.0
22/03:30am 14.1 11.9 7.9 66 3.1 SE 9 13 5 7 - - 0.0
22/03:00am 14.3 12.1 8.0 66 3.1 SE 9 13 5 7 - - 0.0
22/02:30am 14.0 11.7 7.5 65 3.2 SE 9 13 5 7 - - 0.0
22/02:00am 14.5 11.8 7.3 62 3.5 SE 11 17 6 9 - - 0.0
22/01:30am 14.6 12.2 7.2 61 3.6 SE 9 15 5 8 - - 0.0
22/01:00am 15.3 12.5 7.1 58 4.0 SE 11 17 6 9 - - 0.0
22/12:30am 15.6 12.4 6.9 56 4.3 SSE 13 20 7 11 - - 0.0
22/12:00am 16.2 12.9 6.6 53 4.7 SE 13 20 7 11 - - 0.0
 
Date/Time
WST
Temp
°C
App
Temp
°C
Dew
Point
°C
Rel
Hum
%
Delta-T
°C
Wind Press
QNH
hPa
Press
MSL
hPa
Rain since
9am
mm
Dir  Spd
km/h
Gust
km/h
Spd
kts
Gust
kts
21/11:30pm 16.4 13.2 6.8 53 4.7 SE 13 24 7 13 - - 0.0
21/11:00pm 16.9 12.9 6.7 51 5.0 SSE 17 26 9 14 - - 0.0
21/10:30pm 16.9 14.4 8.3 57 4.4 SSE 11 15 6 8 - - 0.0
21/10:00pm 17.4 14.5 8.0 54 4.8 SSE 13 20 7 11 - - 0.0
21/09:30pm 17.5 14.6 9.7 60 4.1 S 15 26 8 14 - - 0.0
21/09:00pm 17.7 14.0 10.1 61 4.0 SSW 20 32 11 17 - - 0.0
21/08:30pm 17.5 13.3 9.7 60 4.1 SSW 22 33 12 18 - - 0.0
21/08:00pm 17.4 13.0 9.1 58 4.3 SSW 22 33 12 18 - - 0.0
21/07:30pm 17.3 12.5 8.7 57 4.4 SSW 24 35 13 19 - - 0.0
21/07:00pm 17.6 13.6 9.0 57 4.5 S 20 39 11 21 - - 0.0
21/06:30pm 17.9 12.6 9.8 59 4.3 SSW 28 39 15 21 - - 0.0
21/06:00pm 18.3 13.4 9.9 58 4.5 SSW 26 37 14 20 - - 0.0
21/05:30pm 19.0 14.1 10.0 56 4.8 SSW 26 39 14 21 - - 0.0
21/05:00pm 19.2 13.9 9.9 55 5.0 SSW 28 39 15 21 - - 0.0
21/04:30pm 19.8 14.8 10.8 56 4.9 SSW 28 39 15 21 - - 0.0
21/04:11pm 19.6 14.2 9.5 52 5.4 SSW 28 48 15 26 - - 0.0
21/04:00pm 20.3 15.0 8.3 46 6.3 SSW 26 43 14 23 - - 0.0
21/03:30pm 20.3 14.7 8.6 47 6.1 SSW 28 43 15 23 - - 0.0
21/03:00pm 19.9 14.0 8.9 49 5.8 SSW 30 46 16 25 - - 0.0
21/02:30pm 20.7 15.2 9.3 48 6.1 SW 28 39 15 21 - - 0.0
21/02:00pm 20.5 15.1 9.4 49 5.9 SW 28 39 15 21 - - 0.0
21/01:30pm 21.2 15.6 8.8 45 6.6 SW 28 44 15 24 - - 0.0
21/01:00pm 20.6 14.8 7.9 44 6.6 SW 28 48 15 26 - - 0.0
21/12:56pm 21.0 15.3 8.3 44 6.7 SSW 28 48 15 26 - - 0.0
21/12:30pm 20.7 15.6 9.3 48 6.1 SSW 26 37 14 20 - - 0.0
21/12:00pm 20.1 15.4 9.4 50 5.7 SSW 24 37 13 20 - - 0.0
21/11:30am 20.4 14.6 8.1 45 6.4 SW 28 41 15 22 - - 0.0
21/11:00am 20.5 14.8 8.2 45 6.4 SW 28 46 15 25 - - 0.0
21/10:30am 19.9 14.2 8.3 47 6.0 SSW 28 46 15 25 - - 0.0
21/10:00am 19.4 13.6 9.6 53 5.2 SSW 30 46 16 25 - - 0.0
21/09:32am 19.4 13.7 11.2 59 4.5 SW 32 52 17 28 - - 0.0
21/09:30am 18.8 12.9 10.4 58 4.5 SW 32 46 17 25 - - 0.0
21/09:16am 18.6 11.7 10.4 59 4.4 SW 37 56 20 30 - - 0.0
21/09:00am 18.6 12.9 11.7 64 3.8 SW 33 52 18 28 - - 4.6
21/08:57am 18.6 13.1 11.9 65 3.7 SW 32 50 17 27 - - 4.6
21/08:30am 19.1 14.0 13.1 68 3.4 SW 32 46 17 25 - - 4.6
21/08:11am 18.5 13.7 14.0 75 2.6 SSW 32 52 17 28 - - 4.6
21/08:00am 18.3 13.4 13.8 75 2.6 SW 32 44 17 24 - - 4.6
21/07:49am 18.1 13.7 14.0 77 2.3 SW 30 50 16 27 - - 4.6
21/07:30am 17.5 14.5 15.8 90 1.0 SW 26 41 14 22 - - 4.6
21/07:00am 16.3 12.7 15.2 93 0.6 SW 28 43 15 23 - - 4.6
21/06:31am 16.7 12.2 15.4 92 0.8 SW 33 57 18 31 - - 4.6
21/06:30am 16.8 12.5 15.5 92 0.8 SW 32 48 17 26 - - 4.6
21/06:16am 17.3 12.8 14.9 86 1.4 WSW 32 50 17 27 - - 3.8
21/06:00am 19.0 14.0 13.4 70 3.2 WSW 32 44 17 24 - - 0.0
21/05:30am 18.6 14.2 12.8 69 3.3 W 28 41 15 22 - - 0.0
21/05:00am 19.0 14.8 11.1 60 4.3 WSW 24 37 13 20 - - 0.0
21/04:30am 18.5 14.2 10.8 61 4.2 W 24 33 13 18 - - 0.0
21/04:00am 18.4 14.3 11.5 64 3.8 W 24 33 13 18 - - 0.0
21/03:30am 18.6 14.6 11.7 64 3.8 W 24 35 13 19 - - 0.0
21/03:00am 18.7 14.6 11.5 63 4.0 W 24 35 13 19 - - 0.0
21/02:30am 19.0 15.6 11.1 60 4.3 WSW 20 32 11 17 - - 0.0
21/02:00am 18.8 14.8 10.4 58 4.5 SW 22 33 12 18 - - 0.0
21/01:30am 18.9 15.3 11.7 63 4.0 SW 22 33 12 18 - - 0.0
21/01:00am 19.0 15.3 10.0 56 4.8 WSW 20 28 11 15 - - 0.0
21/12:30am 18.7 15.1 10.5 59 4.4 SW 20 33 11 18 - - 0.0
21/12:00am 19.1 16.1 12.6 66 3.6 SW 20 32 11 17 - - 0.0
 
Date/Time
WST
Temp
°C
App
Temp
°C
Dew
Point
°C
Rel
Hum
%
Delta-T
°C
Wind Press
QNH
hPa
Press
MSL
hPa
Rain since
9am
mm
Dir  Spd
km/h
Gust
km/h
Spd
kts
Gust
kts
20/11:30pm 19.0 15.8 11.8 63 4.0 SW 20 30 11 16 - - 0.0
20/11:00pm 18.8 15.7 11.6 63 4.0 SW 19 24 10 13 - - 0.0
20/10:30pm 18.7 15.8 11.0 61 4.2 SW 17 24 9 13 - - 0.0
20/10:00pm 19.1 16.1 12.1 64 3.9 SW 19 30 10 16 - - 0.0
20/09:30pm 19.5 15.7 12.5 64 3.9 SW 24 35 13 19 - - 0.0
20/09:00pm 19.4 14.7 11.9 62 4.2 SW 28 41 15 22 - - 0.0
20/08:30pm 19.6 15.9 14.0 70 3.2 SW 26 35 14 19 - - 0.0
20/08:00pm 19.5 17.2 14.7 74 2.8 SSW 20 33 11 18 - - 0.0

Latest Capital City Observations: Canberra | Sydney | Melbourne | Brisbane | Adelaide | Perth | Hobart | Darwin

Other Formats:

Comma delimited format used in spreadsheet applications
http://www.bom.gov.au/fwo/IDW60901/IDW60901.94614.axf

JavaScript Object Notation format (JSON) in row-major order
http://www.bom.gov.au/fwo/IDW60901/IDW60901.94614.json